»·PEaware :: N929X KBFL-KSMX

N929X :: KBFL-KSMX

FLIGHT INFORMATION

Flight Status: Arrived
Operator: Privately registered:
United States
More flights under this callsign
Pilot: Scott M. (16181)
Aircraft: Unknown
(EPIC)
More flights by this aircraft type
Origin: KBFL Meadows
United States
Destination: KSMX Santa Maria Pub/Capt Hancock
United States
More flights between these airports :: More routes between these airports
Route: +
File this flight plan on PilotEdge
Remarks:
Altitude:
(Current/Filed)
8,500ft
Speed:
(Current/Filed)
174kts
Departed: 02-Jan-18 06:41 PM
Arrived: 02-Jan-18 07:15 PM
Distance/Time
Traveled:
75nm/0:33
Distance/Time
To Go:
Arrived

Flight Plot

Page will automatically refresh every two minutes.


Map Options




Map Legend


Flown Route
Filed Route
Departure Airport
Arrival Airport
Navaid (VOR, NDB)
Fix

Horizontal Profiles

Position Reports

Time Latitude Longitude Heading Altitude Ground
Speed
02-Jan-18 18:37 35.429309 -119.046174 222 494ft 0kts
02-Jan-18 18:38 35.429309 -119.046174 222 494ft 0kts
02-Jan-18 18:39 35.429309 -119.046174 222 494ft 0kts
02-Jan-18 18:40 35.429309 -119.046174 222 494ft 0kts
02-Jan-18 18:41 35.429309 -119.046174 222 494ft 0kts
02-Jan-18 18:42 35.429119 -119.046389 222 493ft 10kts
02-Jan-18 18:43 35.425673 -119.044816 229 479ft 0kts
02-Jan-18 18:44 35.425673 -119.044816 229 479ft 0kts
02-Jan-18 18:45 35.425673 -119.044816 229 479ft 0kts
02-Jan-18 18:46 35.425673 -119.044816 229 479ft 0kts
02-Jan-18 18:47 35.429377 -119.050777 312 483ft 93kts
02-Jan-18 18:48 35.437684 -119.079753 225 1258ft 127kts
02-Jan-18 18:49 35.409888 -119.106676 220 2141ft 140kts
02-Jan-18 18:50 35.390315 -119.130272 251 2901ft 134kts
02-Jan-18 18:51 35.384474 -119.169181 255 4494ft 141kts
02-Jan-18 18:52 35.370060 -119.221528 248 6387ft 170kts
02-Jan-18 18:53 35.355941 -119.263167 245 7848ft 168kts
02-Jan-18 18:54 35.337147 -119.314954 244 8327ft 176kts
02-Jan-18 18:55 35.316869 -119.369392 243 8489ft 179kts
02-Jan-18 18:56 35.296362 -119.423953 243 8489ft 176kts
02-Jan-18 18:57 35.276130 -119.477567 243 8490ft 175kts
02-Jan-18 18:58 35.256073 -119.530600 243 8490ft 174kts
02-Jan-18 18:59 35.235872 -119.583918 243 8490ft 174kts
02-Jan-18 19:00 35.215750 -119.636940 243 8489ft 174kts
02-Jan-18 19:01 35.196031 -119.688809 243 8490ft 174kts
02-Jan-18 19:02 35.177054 -119.738765 243 7784ft 157kts
02-Jan-18 19:03 35.159252 -119.785509 244 6921ft 150kts
02-Jan-18 19:04 35.141987 -119.830664 244 6492ft 150kts
02-Jan-18 19:05 35.124056 -119.877441 244 6491ft 156kts
02-Jan-18 19:06 35.105603 -119.925600 244 6490ft 159kts
02-Jan-18 19:07 35.086946 -119.974243 244 6490ft 161kts
02-Jan-18 19:08 35.068263 -120.022885 244 6489ft 156kts
02-Jan-18 19:09 35.050057 -120.070202 244 6489ft 153kts
02-Jan-18 19:10 35.032312 -120.116254 244 6453ft 148kts
02-Jan-18 19:11 35.015352 -120.160275 244 5979ft 141kts
02-Jan-18 19:12 34.998234 -120.204663 245 5148ft 147kts
02-Jan-18 19:13 34.981662 -120.247566 245 4543ft 127kts
02-Jan-18 19:14 34.966815 -120.285771 245 4216ft 127kts
02-Jan-18 19:15 34.948556 -120.321950 216 3687ft 130kts
02-Jan-18 19:16 34.920394 -120.344845 217 2845ft 120kts
02-Jan-18 19:17 34.895996 -120.367777 222 2440ft 103kts
02-Jan-18 19:18 34.873674 -120.389695 225 2230ft 105kts
02-Jan-18 19:19 34.874312 -120.421343 302 1376ft 97kts
02-Jan-18 19:20 34.890593 -120.443119 313 377ft 86kts
02-Jan-18 19:21 34.898689 -120.451236 89 265ft 0kts
02-Jan-18 19:22 34.900011 -120.450876 46 265ft 19kts
02-Jan-18 19:23 34.898155 -120.447770 125 265ft 27kts
02-Jan-18 19:24 34.897309 -120.446388 139 265ft 0kts
02-Jan-18 19:25 34.897309 -120.446388 139 265ft 0kts
02-Jan-18 19:26 34.897309 -120.446388 139 265ft 0kts
02-Jan-18 19:27 34.897309 -120.446388 139 265ft 0kts

Navigation Log

Ident Type
1. KBFL Airport
2. KSMX Airport